createdAt,value
2019-03-12T00:03:17.949Z,7.95
2019-03-12T00:09:22.199Z,7.72
2019-03-12T00:15:24.329Z,9.03
2019-03-12T00:21:26.448Z,9.08
2019-03-12T00:27:28.559Z,7.78
2019-03-12T00:33:30.795Z,7.70
2019-03-12T00:39:32.985Z,8.85
2019-03-12T00:45:35.403Z,8.28
2019-03-12T00:51:37.604Z,8.05
2019-03-12T00:57:39.788Z,6.92
2019-03-12T01:03:41.979Z,5.90
2019-03-12T01:09:44.221Z,8.33
2019-03-12T01:15:46.422Z,4.42
2019-03-12T01:21:48.690Z,6.50
2019-03-12T01:27:50.834Z,6.90
2019-03-12T01:33:53.083Z,8.10
2019-03-12T01:39:55.351Z,5.92
2019-03-12T01:45:57.648Z,7.90
2019-03-12T01:51:59.892Z,8.28
2019-03-12T01:58:02.172Z,6.45
2019-03-12T02:04:04.320Z,7.83
2019-03-12T02:10:07.231Z,7.78
2019-03-12T02:16:09.480Z,7.62
2019-03-12T02:22:11.668Z,8.58
2019-03-12T02:28:13.770Z,6.58
2019-03-12T02:34:15.944Z,7.83
2019-03-12T02:40:18.230Z,10.28
2019-03-12T02:46:20.363Z,8.03
2019-03-12T02:52:22.628Z,9.73
2019-03-12T02:58:24.787Z,9.95
2019-03-12T03:04:27.038Z,7.80
2019-03-12T03:10:29.334Z,8.80
2019-03-12T03:16:31.703Z,8.15
2019-03-12T03:22:33.827Z,11.40
2019-03-12T03:28:35.962Z,10.20
2019-03-12T03:34:38.110Z,10.08
2019-03-12T03:40:40.457Z,11.97
2019-03-12T03:46:42.573Z,13.93
2019-03-12T03:52:44.734Z,12.00
2019-03-12T03:58:46.888Z,11.03
2019-03-12T04:04:49.184Z,11.18
2019-03-12T04:10:51.384Z,10.58
2019-03-12T04:16:53.575Z,13.60
2019-03-12T04:22:55.785Z,10.35
2019-03-12T04:28:57.926Z,8.90
2019-03-12T04:35:00.056Z,12.10
2019-03-12T04:41:02.279Z,10.65
2019-03-12T04:47:04.655Z,11.93
2019-03-12T04:53:06.791Z,9.85
2019-03-12T04:59:08.958Z,10.25
2019-03-12T05:05:11.125Z,18.17
2019-03-12T05:11:13.406Z,11.83
2019-03-12T05:17:36.483Z,8.03
2019-03-12T05:23:38.719Z,13.98
2019-03-12T05:29:40.836Z,9.55
2019-03-12T05:35:42.969Z,9.03
2019-03-12T05:41:46.362Z,10.72
2019-03-12T05:47:48.754Z,13.08
2019-03-12T05:53:51.148Z,17.73
2019-03-12T05:59:53.383Z,39.65
2019-03-12T06:05:57.809Z,49.70
2019-03-12T06:12:00.071Z,34.45
2019-03-12T06:18:02.300Z,18.92
2019-03-12T06:24:04.555Z,11.68
2019-03-12T06:30:07.955Z,9.48
2019-03-12T06:36:14.962Z,7.85
2019-03-12T06:42:28.332Z,7.20
2019-03-12T06:57:11.812Z,8.15
2019-03-12T07:11:27.118Z,7.05
2019-03-12T09:05:26.216Z,10.28
2019-03-12T09:11:36.220Z,12.37
2019-03-12T09:17:42.415Z,12.37
2019-03-12T09:23:46.535Z,13.25
2019-03-12T09:30:05.641Z,8.70
2019-03-12T09:36:09.884Z,10.45
2019-03-12T09:42:30.363Z,10.75
2019-03-12T09:48:40.458Z,9.45
2019-03-12T09:54:47.722Z,7.92
2019-03-12T10:01:08.617Z,10.65
2019-03-12T10:07:12.924Z,11.60
2019-03-12T10:13:23.747Z,9.50
2019-03-12T10:19:37.221Z,8.80
2019-03-12T10:25:50.476Z,14.38
2019-03-12T10:32:12.988Z,12.40
2019-03-12T10:38:53.688Z,8.83
2019-03-12T10:44:57.770Z,8.40
2019-03-12T10:51:00.172Z,7.53
2019-03-12T10:57:02.363Z,9.25
2019-03-12T11:03:04.641Z,7.72
2019-03-12T11:09:06.986Z,5.92
2019-03-12T11:15:09.886Z,7.10
2019-03-12T11:21:14.771Z,8.63
2019-03-12T11:27:17.171Z,8.33
2019-03-12T11:33:19.370Z,9.33
2019-03-12T11:39:21.672Z,8.30
2019-03-12T11:45:35.795Z,8.35
2019-03-12T11:51:28.925Z,8.23
2019-03-12T11:57:31.451Z,10.13
2019-03-12T12:03:33.951Z,8.40
2019-03-12T12:09:36.385Z,6.92
2019-03-12T12:15:38.878Z,8.63
2019-03-12T12:21:45.956Z,6.95
2019-03-12T12:27:48.480Z,7.40
2019-03-12T12:33:51.177Z,6.80
2019-03-12T12:39:53.365Z,6.83
2019-03-12T12:45:55.771Z,7.62
2019-03-12T12:51:58.187Z,7.90
2019-03-12T12:58:00.617Z,8.13
2019-03-12T13:04:04.026Z,7.67
2019-03-12T13:10:10.782Z,9.15
2019-03-12T13:16:24.362Z,6.78
2019-03-12T13:22:21.732Z,5.37
2019-03-12T13:28:25.156Z,4.60
2019-03-12T13:34:27.767Z,4.37
2019-03-12T13:40:30.053Z,3.15
2019-03-12T13:46:32.537Z,3.98
2019-03-12T13:52:35.096Z,5.97
2019-03-12T13:58:37.589Z,5.30
2019-03-12T14:04:40.019Z,4.25
2019-03-12T14:10:43.409Z,5.15
2019-03-12T14:16:45.717Z,4.22
2019-03-12T14:22:50.027Z,7.15
2019-03-12T14:28:52.853Z,5.37
2019-03-12T14:34:55.071Z,5.35
2019-03-12T14:40:57.423Z,3.75
2019-03-12T14:46:59.721Z,6.78
2019-03-12T14:53:07.547Z,4.17
2019-03-12T14:59:10.468Z,3.70
2019-03-12T15:05:13.271Z,3.52
2019-03-12T15:11:15.806Z,3.33
2019-03-12T15:17:18.185Z,3.62
2019-03-12T15:23:20.655Z,3.75
2019-03-12T15:29:23.589Z,2.77
2019-03-12T15:35:26.903Z,3.08
2019-03-12T15:41:29.198Z,2.72
2019-03-12T15:47:33.889Z,4.28
2019-03-12T15:53:36.255Z,3.65
2019-03-12T15:59:38.423Z,3.12
2019-03-12T16:05:40.787Z,4.00
2019-03-12T16:11:42.980Z,4.15
2019-03-12T16:17:45.291Z,2.37
2019-03-12T16:23:47.964Z,3.75
2019-03-12T16:29:50.170Z,4.47
2019-03-12T16:35:52.756Z,6.15
2019-03-12T16:42:04.216Z,4.65
2019-03-12T16:48:06.631Z,4.17
2019-03-12T16:54:09.904Z,5.80
2019-03-12T17:00:12.257Z,9.70
2019-03-12T17:06:15.552Z,12.82
2019-03-12T17:12:18.043Z,7.65
2019-03-12T17:18:20.333Z,8.88
2019-03-12T17:24:22.699Z,15.80
2019-03-12T17:30:27.573Z,25.00
2019-03-12T17:36:29.932Z,7.22
2019-03-12T17:42:32.276Z,5.25
2019-03-12T17:48:36.784Z,22.87
2019-03-12T17:54:39.016Z,7.67
2019-03-12T18:00:43.117Z,5.17
2019-03-12T18:06:45.378Z,5.83
2019-03-12T18:12:47.726Z,7.70
2019-03-12T18:18:49.955Z,30.17
2019-03-12T18:24:54.074Z,28.95
2019-03-12T18:30:57.301Z,48.40
2019-03-12T18:37:00.652Z,97.40
2019-03-12T18:43:03.035Z,67.45
2019-03-12T18:49:05.404Z,47.62
2019-03-12T18:55:12.510Z,33.18
2019-03-12T19:01:15.418Z,12.43
2019-03-12T19:07:18.296Z,9.93
2019-03-12T19:13:20.930Z,7.42
2019-03-12T19:19:23.518Z,7.28
2019-03-12T19:25:26.586Z,9.88
2019-03-12T19:31:31.110Z,6.92
2019-03-12T19:37:33.304Z,9.70
2019-03-12T19:43:35.725Z,8.75
2019-03-12T19:49:38.115Z,7.40
2019-03-12T19:55:41.755Z,8.40
2019-03-12T20:01:44.771Z,8.33
2019-03-12T20:07:47.016Z,8.48
2019-03-12T20:14:31.053Z,9.85
2019-03-12T20:21:10.267Z,11.10
2019-03-12T20:27:55.400Z,9.58
2019-03-12T20:34:42.331Z,9.33
2019-03-12T20:41:21.052Z,9.45
2019-03-12T20:47:51.200Z,10.98
2019-03-12T20:54:26.917Z,11.15
2019-03-12T21:01:17.391Z,10.38
2019-03-12T21:08:09.303Z,9.80
2019-03-12T21:15:08.350Z,12.25
2019-03-12T21:22:03.694Z,9.73
2019-03-12T21:28:33.721Z,10.50
2019-03-12T21:34:35.850Z,10.68
2019-03-12T21:40:38.211Z,10.05
2019-03-12T21:46:40.463Z,8.33
2019-03-12T21:52:42.675Z,8.68
2019-03-12T21:58:44.925Z,10.80
2019-03-12T22:04:47.136Z,8.28
2019-03-12T22:10:49.329Z,9.13
2019-03-12T22:16:53.152Z,7.90
2019-03-12T22:23:00.280Z,10.45
2019-03-12T22:29:02.875Z,9.18
2019-03-12T22:35:05.239Z,8.63
2019-03-12T22:41:07.504Z,9.13
2019-03-12T22:47:09.715Z,6.67
2019-03-12T22:53:11.914Z,6.83
2019-03-12T22:59:15.149Z,5.85
2019-03-12T23:05:17.435Z,7.10
2019-03-12T23:11:19.687Z,8.33
2019-03-12T23:17:21.995Z,8.25
2019-03-12T23:23:24.199Z,7.15
2019-03-12T23:29:26.379Z,5.90
2019-03-12T23:35:28.730Z,7.50
2019-03-12T23:41:30.963Z,6.22
2019-03-12T23:47:33.482Z,5.28
2019-03-12T23:53:36.145Z,5.47
2019-03-12T23:59:38.467Z,4.65
